SAS698 LIRP-EKCH
Flight info
| Callsign | SAS698 |
|---|---|
| Flight time | N/A |
| Altitude | 34000 |
| Route | SPEZI DCT MONEB DCT DESIP DCT PEPAG DCT ABESI DCT LOKTA DCT TEDGO DCT HAREM DCT LOHRE DCT BERXO DCT MAKEL N851 GESKA Z711 MONAK |
| Aircraft | A319/M-SDE3FGHIRWY/LB1 |
Departure
| Time | 2026-05-05 13:53 |
|---|---|
| Airport | Pisa International Airport (LIRP) |
Arrival
| Time | N/A |
|---|---|
| Airport | Copenhagen Kastrup Airport (EKCH) |
| Time | Latitude | Longitude | Altitude | Speed | Heading |
|---|---|---|---|---|---|
| 2026-05-05 13:26 | 43.69770 | 10.39748 | 11 ft | 0 kts | 324° |
| 2026-05-05 13:43 | 43.69759 | 10.39759 | 11 ft | 4 kts | 324° |
| 2026-05-05 13:43 | 43.69746 | 10.39772 | 14 ft | 4 kts | 324° |
| 2026-05-05 13:43 | 43.69717 | 10.39801 | 12 ft | 4 kts | 324° |
| 2026-05-05 13:43 | 43.69698 | 10.39820 | 11 ft | 1 kts | 324° |
| 2026-05-05 13:44 | 43.69697 | 10.39820 | 11 ft | 0 kts | 324° |
| 2026-05-05 13:48 | 43.69699 | 10.39817 | 11 ft | 1 kts | 319° |
| 2026-05-05 13:49 | 43.69705 | 10.39794 | 11 ft | 5 kts | 283° |
| 2026-05-05 13:49 | 43.69686 | 10.39794 | 14 ft | 4 kts | 159° |
| 2026-05-05 13:49 | 43.69642 | 10.39809 | 11 ft | 9 kts | 189° |
| 2026-05-05 13:49 | 43.69565 | 10.39776 | 11 ft | 13 kts | 195° |
| 2026-05-05 13:50 | 43.69484 | 10.39793 | 13 ft | 9 kts | 104° |
| 2026-05-05 13:50 | 43.69445 | 10.39880 | 11 ft | 12 kts | 148° |
| 2026-05-05 13:50 | 43.69372 | 10.39888 | 11 ft | 8 kts | 179° |
| 2026-05-05 13:50 | 43.69295 | 10.39908 | 11 ft | 9 kts | 168° |
| 2026-05-05 13:51 | 43.69261 | 10.39917 | 11 ft | 6 kts | 168° |
| 2026-05-05 13:51 | 43.69254 | 10.39989 | 12 ft | 16 kts | 48° |
| 2026-05-05 13:51 | 43.69348 | 10.40143 | 11 ft | 23 kts | 89° |
| 2026-05-05 13:51 | 43.69318 | 10.40230 | 12 ft | 0 kts | 138° |
| 2026-05-05 13:52 | 43.69308 | 10.40242 | 10 ft | 7 kts | 138° |
| 2026-05-05 13:52 | 43.69230 | 10.40300 | 9 ft | 19 kts | 189° |
| 2026-05-05 13:52 | 43.69126 | 10.40201 | 9 ft | 21 kts | 217° |
| 2026-05-05 13:52 | 43.68879 | 10.39947 | 8 ft | 73 kts | 217° |
| 2026-05-05 13:53 | 43.68335 | 10.39380 | 9 ft | 122 kts | 217° |
| 2026-05-05 13:53 | 43.67549 | 10.38573 | 256 ft | 146 kts | 217° |
| 2026-05-05 13:53 | 43.66729 | 10.37754 | 940 ft | 145 kts | 218° |
| 2026-05-05 13:53 | 43.65907 | 10.36934 | 1653 ft | 145 kts | 217° |
| 2026-05-05 13:54 | 43.65067 | 10.36097 | 2129 ft | 158 kts | 217° |
| 2026-05-05 13:54 | 43.64155 | 10.35049 | 2451 ft | 182 kts | 224° |
| 2026-05-05 13:54 | 43.63322 | 10.33601 | 2767 ft | 208 kts | 244° |
| 2026-05-05 13:54 | 43.63077 | 10.31463 | 2950 ft | 249 kts | 274° |
| 2026-05-05 13:55 | 43.63707 | 10.29076 | 3500 ft | 277 kts | 298° |
| 2026-05-05 13:55 | 43.64796 | 10.27009 | 4940 ft | 261 kts | 306° |
| 2026-05-05 13:55 | 43.65938 | 10.25185 | 6481 ft | 240 kts | 307° |
| 2026-05-05 13:55 | 43.67008 | 10.23499 | 7751 ft | 230 kts | 306° |
| 2026-05-05 13:56 | 43.68118 | 10.21790 | 8183 ft | 258 kts | 309° |
| 2026-05-05 13:56 | 43.69554 | 10.20073 | 8667 ft | 282 kts | 323° |
| 2026-05-05 13:56 | 43.71250 | 10.18825 | 9951 ft | 273 kts | 330° |
| 2026-05-05 13:56 | 43.72903 | 10.17459 | 10487 ft | 285 kts | 312° |
| 2026-05-05 13:57 | 43.74030 | 10.15154 | 10762 ft | 300 kts | 287° |
| 2026-05-05 13:57 | 43.74374 | 10.12274 | 11220 ft | 310 kts | 271° |
| 2026-05-05 13:57 | 43.74540 | 10.09282 | 11973 ft | 314 kts | 271° |
| 2026-05-05 13:57 | 43.74718 | 10.06259 | 12783 ft | 317 kts | 272° |
| 2026-05-05 13:58 | 43.74910 | 10.03179 | 13600 ft | 320 kts | 272° |
| 2026-05-05 13:58 | 43.75105 | 10.00134 | 14306 ft | 323 kts | 272° |
| 2026-05-05 13:58 | 43.75306 | 9.97024 | 14985 ft | 326 kts | 271° |
| 2026-05-05 13:58 | 43.75507 | 9.93883 | 15664 ft | 329 kts | 271° |
| 2026-05-05 13:59 | 43.75906 | 9.87497 | 17003 ft | 336 kts | 271° |
| 2026-05-05 13:59 | 43.76106 | 9.84253 | 17673 ft | 340 kts | 271° |
| 2026-05-05 14:00 | 43.76511 | 9.77666 | 18926 ft | 346 kts | 271° |
| 2026-05-05 14:00 | 43.76713 | 9.74341 | 19567 ft | 348 kts | 271° |
| 2026-05-05 14:00 | 43.76916 | 9.71005 | 20231 ft | 349 kts | 271° |
| 2026-05-05 14:00 | 43.77127 | 9.67660 | 20873 ft | 350 kts | 272° |
| 2026-05-05 14:01 | 43.77711 | 9.64350 | 21494 ft | 359 kts | 287° |
| 2026-05-05 14:01 | 43.78954 | 9.61359 | 22105 ft | 370 kts | 302° |
| 2026-05-05 14:01 | 43.80848 | 9.58868 | 22725 ft | 384 kts | 319° |
| 2026-05-05 14:01 | 43.83278 | 9.57194 | 23329 ft | 399 kts | 335° |
| 2026-05-05 14:02 | 43.85965 | 9.56105 | 23860 ft | 403 kts | 337° |
| 2026-05-05 14:02 | 43.88668 | 9.55034 | 24315 ft | 406 kts | 337° |
| 2026-05-05 14:02 | 43.91392 | 9.53954 | 24759 ft | 409 kts | 337° |
| 2026-05-05 14:02 | 43.94136 | 9.52861 | 25192 ft | 411 kts | 337° |
| 2026-05-05 14:03 | 43.96898 | 9.51756 | 25615 ft | 414 kts | 337° |
| 2026-05-05 14:03 | 43.99680 | 9.50641 | 26052 ft | 417 kts | 337° |
| 2026-05-05 14:03 | 44.02478 | 9.49519 | 26473 ft | 420 kts | 337° |
| 2026-05-05 14:03 | 44.05299 | 9.48384 | 26884 ft | 424 kts | 337° |
| 2026-05-05 14:04 | 44.08145 | 9.47237 | 27275 ft | 427 kts | 337° |
| 2026-05-05 14:04 | 44.11016 | 9.46082 | 27720 ft | 430 kts | 337° |
| 2026-05-05 14:04 | 44.13903 | 9.44915 | 28098 ft | 434 kts | 337° |
| 2026-05-05 14:04 | 44.16811 | 9.43733 | 28495 ft | 437 kts | 337° |
| 2026-05-05 14:05 | 44.19739 | 9.42539 | 28899 ft | 440 kts | 337° |
| 2026-05-05 14:05 | 44.22694 | 9.41337 | 29303 ft | 443 kts | 337° |
| 2026-05-05 14:05 | 44.25667 | 9.40132 | 29694 ft | 446 kts | 337° |
| 2026-05-05 14:05 | 44.28661 | 9.38921 | 30074 ft | 450 kts | 337° |
| 2026-05-05 14:06 | 44.31672 | 9.37705 | 30407 ft | 452 kts | 337° |
| 2026-05-05 14:06 | 44.34708 | 9.36476 | 30749 ft | 455 kts | 337° |
| 2026-05-05 14:06 | 44.37754 | 9.35240 | 31082 ft | 457 kts | 337° |
| 2026-05-05 14:06 | 44.40812 | 9.33997 | 31397 ft | 459 kts | 337° |
| 2026-05-05 14:07 | 44.43851 | 9.32762 | 31727 ft | 461 kts | 337° |
| 2026-05-05 14:07 | 44.46926 | 9.31509 | 32177 ft | 460 kts | 337° |
| 2026-05-05 14:07 | 44.49993 | 9.30257 | 32623 ft | 458 kts | 337° |
| 2026-05-05 14:07 | 44.53054 | 9.29003 | 33072 ft | 457 kts | 337° |
| 2026-05-05 14:08 | 44.56105 | 9.27748 | 33517 ft | 456 kts | 336° |
| 2026-05-05 14:08 | 44.59151 | 9.26494 | 33874 ft | 457 kts | 336° |
| 2026-05-05 14:08 | 44.65321 | 9.24731 | 33960 ft | 452 kts | 349° |
| 2026-05-05 14:09 | 44.71553 | 9.23997 | 33961 ft | 448 kts | 349° |
| 2026-05-05 14:09 | 44.77770 | 9.23241 | 33961 ft | 448 kts | 349° |
| 2026-05-05 14:10 | 44.83995 | 9.22482 | 33965 ft | 448 kts | 349° |
| 2026-05-05 14:10 | 44.90219 | 9.21733 | 33965 ft | 449 kts | 349° |
| 2026-05-05 14:11 | 44.96442 | 9.20981 | 33963 ft | 448 kts | 349° |
| 2026-05-05 14:11 | 45.02655 | 9.20222 | 33984 ft | 448 kts | 349° |
| 2026-05-05 14:12 | 45.08843 | 9.19462 | 33950 ft | 450 kts | 349° |
| 2026-05-05 14:12 | 45.15079 | 9.18700 | 33948 ft | 450 kts | 349° |
| 2026-05-05 14:13 | 45.21332 | 9.17938 | 33947 ft | 451 kts | 349° |
| 2026-05-05 14:13 | 45.27593 | 9.17168 | 33974 ft | 452 kts | 349° |
| 2026-05-05 14:14 | 45.33864 | 9.16392 | 33978 ft | 452 kts | 349° |
| 2026-05-05 14:14 | 45.40142 | 9.15613 | 33982 ft | 452 kts | 349° |
| 2026-05-05 14:15 | 45.46417 | 9.14838 | 33986 ft | 453 kts | 349° |
| 2026-05-05 14:15 | 45.52693 | 9.14068 | 33978 ft | 453 kts | 349° |
| 2026-05-05 14:16 | 45.58973 | 9.13296 | 33975 ft | 453 kts | 349° |
| 2026-05-05 14:16 | 45.65264 | 9.12502 | 33975 ft | 453 kts | 349° |
| 2026-05-05 14:17 | 45.71527 | 9.11553 | 33970 ft | 452 kts | 347° |
| 2026-05-05 14:17 | 45.77776 | 9.10487 | 33977 ft | 452 kts | 347° |
| 2026-05-05 14:18 | 45.84028 | 9.09439 | 33984 ft | 452 kts | 347° |
| 2026-05-05 14:18 | 45.90291 | 9.08424 | 33997 ft | 454 kts | 347° |
| 2026-05-05 14:19 | 45.96529 | 9.07435 | 33984 ft | 454 kts | 347° |
| 2026-05-05 14:19 | 46.02820 | 9.06426 | 33995 ft | 455 kts | 347° |
| 2026-05-05 14:20 | 46.09133 | 9.05391 | 33979 ft | 456 kts | 347° |
| 2026-05-05 14:20 | 46.15462 | 9.04409 | 34000 ft | 460 kts | 351° |
| 2026-05-05 14:21 | 46.21933 | 9.04684 | 34014 ft | 466 kts | 357° |
| 2026-05-05 14:21 | 46.28420 | 9.05132 | 34007 ft | 467 kts | 357° |